Huvudsida
METAR-TAF:

METAR-TAF

Flygplatser :

Kuwaits internationella flygplats

Kuwait, Kuwait

latitud: 29-13N, longitud: 047-59E, höjd: 55 m

Aktuellt väderrapport

Denna rapport gjordes för 35 minuter sedan, klockan 21:00 UTC
Vind 7 kt från nord/nordväst
Temperatur 38°C
Fuktighet 17%
Tryck 999 hPa
Sikt 10 km eller mer
Inga moln under 1 500 m eller inga cumulonimbus

METAR: OKBK 192100Z 34007KT CAVOK 38/09 Q0999 NOSIG

Tid: 00:35 (21:35 UTC)

Väderprognos

Denna rapport gjordes för 4 timmar och 50 minuter sedan, klockan 16:45 UTC
Prognos gäller från 19 kl. 18 UTC till 20 kl. 24 UTC
Vind 8 kt från nord/nordväst i byarna ända upp till 18 kt
Sikt: 7000 m
Klar himmel
Temporärt
från 20 kl. 00 UTC till 20 kl. 06 UTC
Sikt: 4000 m
torrdis

TAF: OKBK 191645Z 1918/2024 33008G18KT 7000 SKC TEMPO 2000/2006 4000 HZ

Aktuella väderrapporter och prognoser från 4000 flygplatser (METAR- och TAF-rapporter).

De tillgängliga stationerna syns som gula och röda prickar på kartan.

För musen över prickarna för att se namnen på stationerna.

Klicka sedan för att få väderrapporter och prognoser.

För att ändra kartan: Klicka på de gröna knapparna med ett svart kors på för att zooma in; den gröna knappen med ett streck på för att zooma ut; eller på de gröna pilarna för angränsande kartor.


METAR-TAF: